sensor_id;sensor_type;location;lat;lon;timestamp;P1;durP1;ratioP1;P2;durP2;ratioP2
3006;SDS011;1513;47.650;10.720;2022-08-27T00:01:16;3.73;;;3.00;;
3006;SDS011;1513;47.650;10.720;2022-08-27T00:04:19;3.10;;;2.80;;
3006;SDS011;1513;47.650;10.720;2022-08-27T00:07:23;2.43;;;2.23;;
3006;SDS011;1513;47.650;10.720;2022-08-27T00:10:26;2.77;;;2.50;;
3006;SDS011;1513;47.650;10.720;2022-08-27T00:13:30;3.30;;;3.00;;
3006;SDS011;1513;47.650;10.720;2022-08-27T00:16:33;3.00;;;2.80;;
3006;SDS011;1513;47.650;10.720;2022-08-27T00:19:37;2.97;;;2.77;;
3006;SDS011;1513;47.650;10.720;2022-08-27T00:22:41;3.47;;;3.10;;
3006;SDS011;1513;47.650;10.720;2022-08-27T00:25:45;4.10;;;3.13;;
3006;SDS011;1513;47.650;10.720;2022-08-27T00:28:48;2.97;;;2.77;;
3006;SDS011;1513;47.650;10.720;2022-08-27T00:31:52;3.40;;;3.10;;
3006;SDS011;1513;47.650;10.720;2022-08-27T00:34:56;4.63;;;3.47;;
3006;SDS011;1513;47.650;10.720;2022-08-27T00:38:00;3.43;;;3.13;;
3006;SDS011;1513;47.650;10.720;2022-08-27T00:41:05;3.93;;;3.53;;
3006;SDS011;1513;47.650;10.720;2022-08-27T00:44:10;3.67;;;3.20;;
3006;SDS011;1513;47.650;10.720;2022-08-27T00:47:16;4.60;;;3.37;;
3006;SDS011;1513;47.650;10.720;2022-08-27T00:50:31;4.00;;;3.60;;
3006;SDS011;1513;47.650;10.720;2022-08-27T00:53:40;6.87;;;4.30;;
3006;SDS011;1513;47.650;10.720;2022-08-27T00:56:43;5.10;;;4.00;;
3006;SDS011;1513;47.650;10.720;2022-08-27T00:59:47;3.37;;;3.07;;
3006;SDS011;1513;47.650;10.720;2022-08-27T01:02:51;4.00;;;3.53;;
3006;SDS011;1513;47.650;10.720;2022-08-27T01:05:55;3.90;;;3.60;;
3006;SDS011;1513;47.650;10.720;2022-08-27T01:09:09;4.17;;;3.37;;
3006;SDS011;1513;47.650;10.720;2022-08-27T01:12:16;4.60;;;3.33;;
3006;SDS011;1513;47.650;10.720;2022-08-27T01:15:21;3.70;;;3.30;;
3006;SDS011;1513;47.650;10.720;2022-08-27T01:18:27;3.43;;;3.13;;
3006;SDS011;1513;47.650;10.720;2022-08-27T01:21:34;4.90;;;3.97;;
3006;SDS011;1513;47.650;10.720;2022-08-27T01:24:55;3.70;;;3.10;;
3006;SDS011;1513;47.650;10.720;2022-08-27T01:28:02;3.60;;;3.20;;
3006;SDS011;1513;47.650;10.720;2022-08-27T01:31:07;6.20;;;3.67;;
3006;SDS011;1513;47.650;10.720;2022-08-27T01:34:12;4.47;;;3.80;;
3006;SDS011;1513;47.650;10.720;2022-08-27T01:37:17;4.73;;;3.73;;
3006;SDS011;1513;47.650;10.720;2022-08-27T01:40:21;4.50;;;3.73;;
3006;SDS011;1513;47.650;10.720;2022-08-27T01:43:24;4.20;;;3.80;;
3006;SDS011;1513;47.650;10.720;2022-08-27T01:46:28;5.93;;;5.13;;
3006;SDS011;1513;47.650;10.720;2022-08-27T01:49:32;4.60;;;4.20;;
3006;SDS011;1513;47.650;10.720;2022-08-27T01:52:36;5.80;;;4.90;;
3006;SDS011;1513;47.650;10.720;2022-08-27T01:55:40;5.93;;;5.33;;
3006;SDS011;1513;47.650;10.720;2022-08-27T01:58:45;8.07;;;4.47;;
3006;SDS011;1513;47.650;10.720;2022-08-27T02:01:49;6.40;;;5.30;;
3006;SDS011;1513;47.650;10.720;2022-08-27T02:04:52;5.23;;;4.70;;
3006;SDS011;1513;47.650;10.720;2022-08-27T02:07:56;5.97;;;5.03;;
3006;SDS011;1513;47.650;10.720;2022-08-27T02:11:00;5.37;;;4.87;;
3006;SDS011;1513;47.650;10.720;2022-08-27T02:14:04;4.93;;;4.43;;
3006;SDS011;1513;47.650;10.720;2022-08-27T02:17:07;4.07;;;3.67;;
3006;SDS011;1513;47.650;10.720;2022-08-27T02:20:12;4.40;;;4.00;;
3006;SDS011;1513;47.650;10.720;2022-08-27T02:23:17;4.13;;;3.73;;
3006;SDS011;1513;47.650;10.720;2022-08-27T02:26:20;4.27;;;3.87;;
3006;SDS011;1513;47.650;10.720;2022-08-27T02:29:24;5.03;;;4.53;;
3006;SDS011;1513;47.650;10.720;2022-08-27T02:32:28;6.50;;;4.00;;
3006;SDS011;1513;47.650;10.720;2022-08-27T02:35:33;4.80;;;4.30;;
3006;SDS011;1513;47.650;10.720;2022-08-27T02:38:40;4.73;;;3.80;;
3006;SDS011;1513;47.650;10.720;2022-08-27T02:41:44;3.87;;;3.50;;
3006;SDS011;1513;47.650;10.720;2022-08-27T02:44:47;4.60;;;4.20;;
3006;SDS011;1513;47.650;10.720;2022-08-27T02:47:51;6.30;;;4.00;;
3006;SDS011;1513;47.650;10.720;2022-08-27T02:50:55;5.20;;;4.30;;
3006;SDS011;1513;47.650;10.720;2022-08-27T02:53:59;4.80;;;4.00;;
3006;SDS011;1513;47.650;10.720;2022-08-27T02:57:04;4.60;;;4.20;;
3006;SDS011;1513;47.650;10.720;2022-08-27T03:00:08;5.80;;;4.57;;
3006;SDS011;1513;47.650;10.720;2022-08-27T03:03:13;5.30;;;4.30;;
3006;SDS011;1513;47.650;10.720;2022-08-27T03:06:17;4.80;;;4.30;;
3006;SDS011;1513;47.650;10.720;2022-08-27T03:09:20;6.17;;;4.57;;
3006;SDS011;1513;47.650;10.720;2022-08-27T03:12:24;5.67;;;4.37;;
3006;SDS011;1513;47.650;10.720;2022-08-27T03:15:27;5.37;;;4.70;;
3006;SDS011;1513;47.650;10.720;2022-08-27T03:18:31;8.00;;;4.70;;
3006;SDS011;1513;47.650;10.720;2022-08-27T03:21:36;5.93;;;5.33;;
3006;SDS011;1513;47.650;10.720;2022-08-27T03:24:40;5.53;;;4.53;;
3006;SDS011;1513;47.650;10.720;2022-08-27T03:27:43;5.90;;;5.30;;
3006;SDS011;1513;47.650;10.720;2022-08-27T03:30:48;6.97;;;6.00;;
3006;SDS011;1513;47.650;10.720;2022-08-27T03:33:54;6.57;;;5.30;;
3006;SDS011;1513;47.650;10.720;2022-08-27T03:37:02;6.60;;;5.90;;
3006;SDS011;1513;47.650;10.720;2022-08-27T03:40:06;6.83;;;5.53;;
3006;SDS011;1513;47.650;10.720;2022-08-27T03:43:11;6.90;;;5.07;;
3006;SDS011;1513;47.650;10.720;2022-08-27T03:46:15;7.33;;;6.10;;
3006;SDS011;1513;47.650;10.720;2022-08-27T03:49:19;5.90;;;5.13;;
3006;SDS011;1513;47.650;10.720;2022-08-27T03:52:24;6.07;;;5.27;;
3006;SDS011;1513;47.650;10.720;2022-08-27T03:55:28;6.97;;;5.37;;
3006;SDS011;1513;47.650;10.720;2022-08-27T03:58:32;6.20;;;5.47;;
3006;SDS011;1513;47.650;10.720;2022-08-27T04:01:36;6.03;;;5.37;;
3006;SDS011;1513;47.650;10.720;2022-08-27T04:04:39;9.37;;;6.10;;
3006;SDS011;1513;47.650;10.720;2022-08-27T04:07:43;8.93;;;6.27;;
3006;SDS011;1513;47.650;10.720;2022-08-27T04:10:47;6.87;;;5.43;;
3006;SDS011;1513;47.650;10.720;2022-08-27T04:13:51;6.87;;;6.10;;
3006;SDS011;1513;47.650;10.720;2022-08-27T04:16:55;6.03;;;5.43;;
3006;SDS011;1513;47.650;10.720;2022-08-27T04:19:59;6.57;;;5.83;;
3006;SDS011;1513;47.650;10.720;2022-08-27T04:23:03;7.30;;;5.70;;
3006;SDS011;1513;47.650;10.720;2022-08-27T04:26:08;10.80;;;8.50;;
3006;SDS011;1513;47.650;10.720;2022-08-27T04:29:12;10.70;;;7.67;;
3006;SDS011;1513;47.650;10.720;2022-08-27T04:32:16;11.30;;;6.43;;
3006;SDS011;1513;47.650;10.720;2022-08-27T04:35:19;7.27;;;5.93;;
3006;SDS011;1513;47.650;10.720;2022-08-27T04:38:23;5.90;;;5.30;;
3006;SDS011;1513;47.650;10.720;2022-08-27T04:41:26;7.77;;;5.97;;
3006;SDS011;1513;47.650;10.720;2022-08-27T04:44:34;6.37;;;5.33;;
3006;SDS011;1513;47.650;10.720;2022-08-27T04:47:37;6.97;;;5.50;;
3006;SDS011;1513;47.650;10.720;2022-08-27T04:50:45;6.40;;;5.50;;
3006;SDS011;1513;47.650;10.720;2022-08-27T04:53:49;5.23;;;4.70;;
3006;SDS011;1513;47.650;10.720;2022-08-27T04:56:52;6.80;;;5.77;;
3006;SDS011;1513;47.650;10.720;2022-08-27T04:59:56;5.73;;;5.20;;
3006;SDS011;1513;47.650;10.720;2022-08-27T05:02:59;8.40;;;6.20;;
3006;SDS011;1513;47.650;10.720;2022-08-27T05:06:04;6.97;;;6.27;;
3006;SDS011;1513;47.650;10.720;2022-08-27T05:09:09;7.70;;;5.90;;
3006;SDS011;1513;47.650;10.720;2022-08-27T05:12:13;7.07;;;5.70;;
3006;SDS011;1513;47.650;10.720;2022-08-27T05:15:16;9.27;;;6.17;;
3006;SDS011;1513;47.650;10.720;2022-08-27T05:18:19;6.93;;;5.80;;
3006;SDS011;1513;47.650;10.720;2022-08-27T05:21:24;7.30;;;6.13;;
3006;SDS011;1513;47.650;10.720;2022-08-27T05:24:32;19.90;;;12.10;;
3006;SDS011;1513;47.650;10.720;2022-08-27T05:27:36;23.37;;;13.63;;
3006;SDS011;1513;47.650;10.720;2022-08-27T05:30:40;19.27;;;12.17;;
3006;SDS011;1513;47.650;10.720;2022-08-27T05:33:45;41.17;;;21.90;;
3006;SDS011;1513;47.650;10.720;2022-08-27T05:36:49;13.70;;;9.20;;
3006;SDS011;1513;47.650;10.720;2022-08-27T05:39:54;28.87;;;7.83;;
3006;SDS011;1513;47.650;10.720;2022-08-27T05:42:58;8.70;;;6.73;;
3006;SDS011;1513;47.650;10.720;2022-08-27T05:46:03;6.80;;;6.10;;
3006;SDS011;1513;47.650;10.720;2022-08-27T05:49:07;9.07;;;7.00;;
3006;SDS011;1513;47.650;10.720;2022-08-27T05:52:11;9.37;;;7.07;;
3006;SDS011;1513;47.650;10.720;2022-08-27T05:55:15;7.70;;;6.47;;
3006;SDS011;1513;47.650;10.720;2022-08-27T05:58:18;8.30;;;5.93;;
3006;SDS011;1513;47.650;10.720;2022-08-27T06:01:46;6.90;;;5.10;;
3006;SDS011;1513;47.650;10.720;2022-08-27T06:04:51;7.20;;;6.10;;
3006;SDS011;1513;47.650;10.720;2022-08-27T06:07:54;8.33;;;6.53;;
3006;SDS011;1513;47.650;10.720;2022-08-27T06:11:01;7.07;;;5.97;;
3006;SDS011;1513;47.650;10.720;2022-08-27T06:14:06;4.90;;;4.40;;
3006;SDS011;1513;47.650;10.720;2022-08-27T06:17:11;7.37;;;5.50;;
3006;SDS011;1513;47.650;10.720;2022-08-27T06:20:14;5.30;;;4.80;;
3006;SDS011;1513;47.650;10.720;2022-08-27T06:23:18;6.87;;;4.50;;
3006;SDS011;1513;47.650;10.720;2022-08-27T06:26:23;4.80;;;4.30;;
3006;SDS011;1513;47.650;10.720;2022-08-27T06:29:28;6.10;;;4.33;;
3006;SDS011;1513;47.650;10.720;2022-08-27T06:32:31;6.23;;;4.40;;
3006;SDS011;1513;47.650;10.720;2022-08-27T06:35:34;4.17;;;3.77;;
3006;SDS011;1513;47.650;10.720;2022-08-27T06:38:39;4.70;;;4.27;;
3006;SDS011;1513;47.650;10.720;2022-08-27T06:41:44;4.73;;;4.20;;
3006;SDS011;1513;47.650;10.720;2022-08-27T06:44:47;5.30;;;4.80;;
3006;SDS011;1513;47.650;10.720;2022-08-27T06:47:51;4.73;;;4.33;;
3006;SDS011;1513;47.650;10.720;2022-08-27T06:50:54;4.80;;;4.33;;
3006;SDS011;1513;47.650;10.720;2022-08-27T06:53:58;6.53;;;5.67;;
3006;SDS011;1513;47.650;10.720;2022-08-27T06:57:03;5.53;;;4.80;;
3006;SDS011;1513;47.650;10.720;2022-08-27T07:00:07;6.93;;;5.30;;
3006;SDS011;1513;47.650;10.720;2022-08-27T07:03:11;5.10;;;4.30;;
3006;SDS011;1513;47.650;10.720;2022-08-27T07:06:15;6.57;;;5.47;;
3006;SDS011;1513;47.650;10.720;2022-08-27T07:09:19;7.00;;;5.17;;
3006;SDS011;1513;47.650;10.720;2022-08-27T07:12:24;6.40;;;5.17;;
3006;SDS011;1513;47.650;10.720;2022-08-27T07:15:28;5.60;;;5.10;;
3006;SDS011;1513;47.650;10.720;2022-08-27T07:18:32;7.03;;;5.67;;
3006;SDS011;1513;47.650;10.720;2022-08-27T07:21:37;6.03;;;5.47;;
3006;SDS011;1513;47.650;10.720;2022-08-27T07:24:41;5.63;;;5.13;;
3006;SDS011;1513;47.650;10.720;2022-08-27T07:27:48;9.33;;;5.50;;
3006;SDS011;1513;47.650;10.720;2022-08-27T07:30:52;4.90;;;4.50;;
3006;SDS011;1513;47.650;10.720;2022-08-27T07:33:56;5.57;;;5.00;;
3006;SDS011;1513;47.650;10.720;2022-08-27T07:36:59;5.10;;;4.60;;
3006;SDS011;1513;47.650;10.720;2022-08-27T07:40:03;6.03;;;4.50;;
3006;SDS011;1513;47.650;10.720;2022-08-27T07:43:09;7.63;;;3.40;;
3006;SDS011;1513;47.650;10.720;2022-08-27T07:46:31;4.10;;;3.70;;
3006;SDS011;1513;47.650;10.720;2022-08-27T07:49:35;3.97;;;3.60;;
3006;SDS011;1513;47.650;10.720;2022-08-27T07:52:39;4.53;;;4.13;;
3006;SDS011;1513;47.650;10.720;2022-08-27T07:55:45;3.60;;;3.30;;
3006;SDS011;1513;47.650;10.720;2022-08-27T07:58:49;3.90;;;3.60;;
3006;SDS011;1513;47.650;10.720;2022-08-27T08:01:53;4.17;;;3.77;;
3006;SDS011;1513;47.650;10.720;2022-08-27T08:04:58;3.77;;;3.40;;
3006;SDS011;1513;47.650;10.720;2022-08-27T08:08:02;3.40;;;3.10;;
3006;SDS011;1513;47.650;10.720;2022-08-27T08:11:06;3.87;;;3.57;;
3006;SDS011;1513;47.650;10.720;2022-08-27T08:14:11;4.10;;;3.80;;
3006;SDS011;1513;47.650;10.720;2022-08-27T08:17:14;4.40;;;4.00;;
3006;SDS011;1513;47.650;10.720;2022-08-27T08:20:18;3.63;;;3.33;;
3006;SDS011;1513;47.650;10.720;2022-08-27T08:23:21;3.67;;;3.47;;
3006;SDS011;1513;47.650;10.720;2022-08-27T08:26:25;3.77;;;3.47;;
3006;SDS011;1513;47.650;10.720;2022-08-27T08:29:28;4.10;;;3.80;;
3006;SDS011;1513;47.650;10.720;2022-08-27T08:32:32;4.97;;;4.00;;
3006;SDS011;1513;47.650;10.720;2022-08-27T08:35:39;4.90;;;4.27;;
3006;SDS011;1513;47.650;10.720;2022-08-27T08:38:43;5.00;;;4.53;;
3006;SDS011;1513;47.650;10.720;2022-08-27T08:41:49;5.63;;;4.97;;
3006;SDS011;1513;47.650;10.720;2022-08-27T08:44:55;5.50;;;5.00;;
3006;SDS011;1513;47.650;10.720;2022-08-27T08:48:08;6.33;;;5.10;;
3006;SDS011;1513;47.650;10.720;2022-08-27T08:51:22;6.40;;;4.90;;
3006;SDS011;1513;47.650;10.720;2022-08-27T08:54:28;5.70;;;4.80;;
3006;SDS011;1513;47.650;10.720;2022-08-27T08:57:37;4.90;;;4.50;;
3006;SDS011;1513;47.650;10.720;2022-08-27T09:00:52;5.03;;;4.53;;
3006;SDS011;1513;47.650;10.720;2022-08-27T09:03:59;4.80;;;4.30;;
3006;SDS011;1513;47.650;10.720;2022-08-27T09:07:14;5.80;;;5.30;;
3006;SDS011;1513;47.650;10.720;2022-08-27T09:10:25;5.40;;;4.70;;
3006;SDS011;1513;47.650;10.720;2022-08-27T09:13:38;5.50;;;4.63;;
3006;SDS011;1513;47.650;10.720;2022-08-27T09:16:43;6.33;;;4.57;;
3006;SDS011;1513;47.650;10.720;2022-08-27T09:19:47;5.40;;;5.00;;
3006;SDS011;1513;47.650;10.720;2022-08-27T09:26:20;5.20;;;4.70;;
3006;SDS011;1513;47.650;10.720;2022-08-27T09:29:27;5.30;;;4.50;;
3006;SDS011;1513;47.650;10.720;2022-08-27T09:32:32;4.83;;;4.40;;
3006;SDS011;1513;47.650;10.720;2022-08-27T09:35:43;5.60;;;4.57;;
3006;SDS011;1513;47.650;10.720;2022-08-27T09:38:51;4.60;;;4.20;;
3006;SDS011;1513;47.650;10.720;2022-08-27T09:41:58;5.23;;;4.30;;
3006;SDS011;1513;47.650;10.720;2022-08-27T09:45:06;5.30;;;4.80;;
3006;SDS011;1513;47.650;10.720;2022-08-27T09:48:13;4.57;;;4.17;;
3006;SDS011;1513;47.650;10.720;2022-08-27T09:51:37;4.53;;;4.10;;
3006;SDS011;1513;47.650;10.720;2022-08-27T09:54:43;4.73;;;4.33;;
3006;SDS011;1513;47.650;10.720;2022-08-27T09:57:48;5.50;;;4.50;;
3006;SDS011;1513;47.650;10.720;2022-08-27T10:00:59;5.03;;;4.63;;
3006;SDS011;1513;47.650;10.720;2022-08-27T10:04:08;4.30;;;3.90;;
3006;SDS011;1513;47.650;10.720;2022-08-27T10:07:48;5.17;;;4.60;;
3006;SDS011;1513;47.650;10.720;2022-08-27T10:10:59;5.20;;;4.70;;
3006;SDS011;1513;47.650;10.720;2022-08-27T10:14:28;6.20;;;5.40;;
3006;SDS011;1513;47.650;10.720;2022-08-27T10:17:39;4.63;;;4.23;;
3006;SDS011;1513;47.650;10.720;2022-08-27T10:25:04;9.10;;;4.80;;
3006;SDS011;1513;47.650;10.720;2022-08-27T10:31:46;7.97;;;5.20;;
3006;SDS011;1513;47.650;10.720;2022-08-27T10:38:36;12.23;;;8.70;;
3006;SDS011;1513;47.650;10.720;2022-08-27T10:41:50;13.07;;;9.50;;
3006;SDS011;1513;47.650;10.720;2022-08-27T10:49:07;11.90;;;8.90;;
3006;SDS011;1513;47.650;10.720;2022-08-27T10:55:47;13.23;;;9.23;;
3006;SDS011;1513;47.650;10.720;2022-08-27T11:08:47;10.00;;;7.80;;
3006;SDS011;1513;47.650;10.720;2022-08-27T11:12:09;11.27;;;8.53;;
3006;SDS011;1513;47.650;10.720;2022-08-27T11:15:24;19.50;;;10.97;;
3006;SDS011;1513;47.650;10.720;2022-08-27T11:21:43;9.13;;;8.00;;
3006;SDS011;1513;47.650;10.720;2022-08-27T11:27:58;13.13;;;9.40;;
3006;SDS011;1513;47.650;10.720;2022-08-27T11:31:05;12.30;;;10.60;;
3006;SDS011;1513;47.650;10.720;2022-08-27T11:37:43;13.67;;;10.37;;
3006;SDS011;1513;47.650;10.720;2022-08-27T11:44:45;12.47;;;9.97;;
3006;SDS011;1513;47.650;10.720;2022-08-27T11:47:51;10.10;;;8.90;;
3006;SDS011;1513;47.650;10.720;2022-08-27T11:50:59;15.10;;;9.77;;
3006;SDS011;1513;47.650;10.720;2022-08-27T11:54:06;10.13;;;9.03;;
3006;SDS011;1513;47.650;10.720;2022-08-27T11:57:25;10.90;;;7.70;;
3006;SDS011;1513;47.650;10.720;2022-08-27T12:00:33;11.63;;;8.57;;
3006;SDS011;1513;47.650;10.720;2022-08-27T12:03:41;8.03;;;7.10;;
3006;SDS011;1513;47.650;10.720;2022-08-27T12:06:49;8.10;;;7.30;;
3006;SDS011;1513;47.650;10.720;2022-08-27T12:13:40;9.17;;;6.73;;
3006;SDS011;1513;47.650;10.720;2022-08-27T12:20:17;9.40;;;7.33;;
3006;SDS011;1513;47.650;10.720;2022-08-27T12:23:49;11.00;;;7.80;;
3006;SDS011;1513;47.650;10.720;2022-08-27T12:33:42;7.23;;;6.50;;
3006;SDS011;1513;47.650;10.720;2022-08-27T12:36:49;11.03;;;8.97;;
3006;SDS011;1513;47.650;10.720;2022-08-27T12:39:55;10.23;;;7.97;;
3006;SDS011;1513;47.650;10.720;2022-08-27T12:43:07;10.67;;;8.03;;
3006;SDS011;1513;47.650;10.720;2022-08-27T12:46:14;8.87;;;6.77;;
3006;SDS011;1513;47.650;10.720;2022-08-27T12:49:20;6.40;;;5.70;;
3006;SDS011;1513;47.650;10.720;2022-08-27T13:05:52;8.83;;;7.33;;
3006;SDS011;1513;47.650;10.720;2022-08-27T13:09:00;8.97;;;6.83;;
3006;SDS011;1513;47.650;10.720;2022-08-27T13:12:15;8.57;;;7.23;;
3006;SDS011;1513;47.650;10.720;2022-08-27T13:15:21;8.27;;;7.27;;
3006;SDS011;1513;47.650;10.720;2022-08-27T13:18:24;11.20;;;8.67;;
3006;SDS011;1513;47.650;10.720;2022-08-27T13:21:28;9.07;;;8.13;;
3006;SDS011;1513;47.650;10.720;2022-08-27T13:24:35;10.63;;;7.43;;
3006;SDS011;1513;47.650;10.720;2022-08-27T13:27:54;9.40;;;8.17;;
3006;SDS011;1513;47.650;10.720;2022-08-27T13:31:01;12.10;;;8.53;;
3006;SDS011;1513;47.650;10.720;2022-08-27T13:34:05;11.93;;;9.13;;
3006;SDS011;1513;47.650;10.720;2022-08-27T13:37:23;11.50;;;9.70;;
3006;SDS011;1513;47.650;10.720;2022-08-27T13:40:30;11.83;;;9.70;;
3006;SDS011;1513;47.650;10.720;2022-08-27T13:43:40;11.70;;;8.97;;
3006;SDS011;1513;47.650;10.720;2022-08-27T13:46:47;12.00;;;9.10;;
3006;SDS011;1513;47.650;10.720;2022-08-27T13:50:02;10.50;;;9.23;;
3006;SDS011;1513;47.650;10.720;2022-08-27T13:53:11;19.07;;;9.20;;
3006;SDS011;1513;47.650;10.720;2022-08-27T13:56:38;12.53;;;9.70;;
3006;SDS011;1513;47.650;10.720;2022-08-27T13:59:42;13.20;;;9.93;;
3006;SDS011;1513;47.650;10.720;2022-08-27T14:02:46;10.83;;;8.57;;
3006;SDS011;1513;47.650;10.720;2022-08-27T14:05:50;16.77;;;10.50;;
3006;SDS011;1513;47.650;10.720;2022-08-27T14:08:53;15.43;;;11.50;;
3006;SDS011;1513;47.650;10.720;2022-08-27T14:12:00;14.47;;;11.10;;
3006;SDS011;1513;47.650;10.720;2022-08-27T14:15:23;15.40;;;11.30;;
3006;SDS011;1513;47.650;10.720;2022-08-27T14:18:36;19.70;;;12.07;;
3006;SDS011;1513;47.650;10.720;2022-08-27T14:21:40;15.30;;;11.63;;
3006;SDS011;1513;47.650;10.720;2022-08-27T14:24:44;15.27;;;11.80;;
3006;SDS011;1513;47.650;10.720;2022-08-27T14:27:49;29.23;;;23.30;;
3006;SDS011;1513;47.650;10.720;2022-08-27T14:30:54;28.07;;;21.30;;
3006;SDS011;1513;47.650;10.720;2022-08-27T14:33:57;26.37;;;19.83;;
3006;SDS011;1513;47.650;10.720;2022-08-27T14:37:02;68.87;;;48.40;;
3006;SDS011;1513;47.650;10.720;2022-08-27T14:40:06;23.20;;;15.80;;
3006;SDS011;1513;47.650;10.720;2022-08-27T14:43:10;17.03;;;12.30;;
3006;SDS011;1513;47.650;10.720;2022-08-27T14:46:25;16.97;;;12.10;;
3006;SDS011;1513;47.650;10.720;2022-08-27T14:49:31;16.40;;;12.37;;
3006;SDS011;1513;47.650;10.720;2022-08-27T14:52:36;16.77;;;12.33;;
3006;SDS011;1513;47.650;10.720;2022-08-27T14:55:41;15.93;;;12.47;;
3006;SDS011;1513;47.650;10.720;2022-08-27T14:58:45;17.10;;;13.60;;
3006;SDS011;1513;47.650;10.720;2022-08-27T15:01:49;15.13;;;10.10;;
3006;SDS011;1513;47.650;10.720;2022-08-27T15:04:54;15.60;;;11.17;;
3006;SDS011;1513;47.650;10.720;2022-08-27T15:07:57;15.40;;;12.37;;
3006;SDS011;1513;47.650;10.720;2022-08-27T15:11:01;16.33;;;12.40;;
3006;SDS011;1513;47.650;10.720;2022-08-27T15:14:11;16.00;;;12.30;;
3006;SDS011;1513;47.650;10.720;2022-08-27T15:17:23;16.63;;;12.60;;
3006;SDS011;1513;47.650;10.720;2022-08-27T15:20:26;19.17;;;13.30;;
3006;SDS011;1513;47.650;10.720;2022-08-27T15:23:30;19.27;;;12.40;;
3006;SDS011;1513;47.650;10.720;2022-08-27T15:26:33;16.47;;;12.37;;
3006;SDS011;1513;47.650;10.720;2022-08-27T15:29:38;17.43;;;12.37;;
3006;SDS011;1513;47.650;10.720;2022-08-27T15:32:44;17.00;;;12.07;;
3006;SDS011;1513;47.650;10.720;2022-08-27T15:35:49;23.37;;;13.30;;
3006;SDS011;1513;47.650;10.720;2022-08-27T15:38:52;18.20;;;14.40;;
3006;SDS011;1513;47.650;10.720;2022-08-27T15:41:56;21.13;;;13.10;;
3006;SDS011;1513;47.650;10.720;2022-08-27T15:45:00;19.30;;;14.27;;
3006;SDS011;1513;47.650;10.720;2022-08-27T15:48:04;23.53;;;15.43;;
3006;SDS011;1513;47.650;10.720;2022-08-27T15:51:08;20.77;;;14.10;;
3006;SDS011;1513;47.650;10.720;2022-08-27T15:54:14;27.73;;;13.40;;
3006;SDS011;1513;47.650;10.720;2022-08-27T15:57:18;16.17;;;11.97;;
3006;SDS011;1513;47.650;10.720;2022-08-27T16:00:23;16.53;;;12.43;;
3006;SDS011;1513;47.650;10.720;2022-08-27T16:03:27;17.57;;;13.00;;
3006;SDS011;1513;47.650;10.720;2022-08-27T16:06:33;20.03;;;14.60;;
3006;SDS011;1513;47.650;10.720;2022-08-27T16:09:37;15.50;;;11.50;;
3006;SDS011;1513;47.650;10.720;2022-08-27T16:12:41;18.53;;;11.97;;
3006;SDS011;1513;47.650;10.720;2022-08-27T16:15:45;22.27;;;12.83;;
3006;SDS011;1513;47.650;10.720;2022-08-27T16:18:49;17.23;;;11.97;;
3006;SDS011;1513;47.650;10.720;2022-08-27T16:21:53;14.37;;;10.33;;
3006;SDS011;1513;47.650;10.720;2022-08-27T16:24:57;14.00;;;9.93;;
3006;SDS011;1513;47.650;10.720;2022-08-27T16:28:00;11.27;;;8.70;;
3006;SDS011;1513;47.650;10.720;2022-08-27T16:31:04;12.97;;;9.10;;
3006;SDS011;1513;47.650;10.720;2022-08-27T16:34:09;13.00;;;9.40;;
3006;SDS011;1513;47.650;10.720;2022-08-27T16:37:17;10.37;;;8.53;;
3006;SDS011;1513;47.650;10.720;2022-08-27T16:40:21;13.07;;;9.63;;
3006;SDS011;1513;47.650;10.720;2022-08-27T16:43:25;13.07;;;9.10;;
3006;SDS011;1513;47.650;10.720;2022-08-27T16:46:29;16.67;;;10.50;;
3006;SDS011;1513;47.650;10.720;2022-08-27T16:49:32;12.43;;;8.90;;
3006;SDS011;1513;47.650;10.720;2022-08-27T16:52:54;14.03;;;9.40;;
3006;SDS011;1513;47.650;10.720;2022-08-27T16:55:58;12.87;;;9.60;;
3006;SDS011;1513;47.650;10.720;2022-08-27T16:59:02;17.20;;;11.60;;
3006;SDS011;1513;47.650;10.720;2022-08-27T17:02:07;18.33;;;11.63;;
3006;SDS011;1513;47.650;10.720;2022-08-27T17:05:19;18.13;;;12.47;;
3006;SDS011;1513;47.650;10.720;2022-08-27T17:08:24;21.50;;;13.37;;
3006;SDS011;1513;47.650;10.720;2022-08-27T17:11:29;21.33;;;12.90;;
3006;SDS011;1513;47.650;10.720;2022-08-27T17:14:33;19.00;;;12.00;;
3006;SDS011;1513;47.650;10.720;2022-08-27T17:17:40;19.73;;;12.27;;
3006;SDS011;1513;47.650;10.720;2022-08-27T17:20:44;18.77;;;12.07;;
3006;SDS011;1513;47.650;10.720;2022-08-27T17:23:50;21.73;;;12.93;;
3006;SDS011;1513;47.650;10.720;2022-08-27T17:26:54;19.20;;;11.93;;
3006;SDS011;1513;47.650;10.720;2022-08-27T17:29:58;19.17;;;12.23;;
3006;SDS011;1513;47.650;10.720;2022-08-27T17:33:01;20.53;;;11.67;;
3006;SDS011;1513;47.650;10.720;2022-08-27T17:36:06;18.80;;;13.60;;
3006;SDS011;1513;47.650;10.720;2022-08-27T17:39:11;20.77;;;12.23;;
3006;SDS011;1513;47.650;10.720;2022-08-27T17:42:15;18.30;;;12.10;;
3006;SDS011;1513;47.650;10.720;2022-08-27T17:45:19;19.77;;;11.80;;
3006;SDS011;1513;47.650;10.720;2022-08-27T17:48:22;17.97;;;11.23;;
3006;SDS011;1513;47.650;10.720;2022-08-27T17:51:26;17.20;;;11.40;;
3006;SDS011;1513;47.650;10.720;2022-08-27T17:54:34;18.53;;;11.97;;
3006;SDS011;1513;47.650;10.720;2022-08-27T17:57:42;16.30;;;11.03;;
3006;SDS011;1513;47.650;10.720;2022-08-27T18:00:46;14.93;;;11.20;;
3006;SDS011;1513;47.650;10.720;2022-08-27T18:03:50;15.67;;;10.37;;
3006;SDS011;1513;47.650;10.720;2022-08-27T18:06:54;15.43;;;8.87;;
3006;SDS011;1513;47.650;10.720;2022-08-27T18:09:57;16.03;;;9.60;;
3006;SDS011;1513;47.650;10.720;2022-08-27T18:13:02;13.40;;;9.60;;
3006;SDS011;1513;47.650;10.720;2022-08-27T18:16:06;15.43;;;8.93;;
3006;SDS011;1513;47.650;10.720;2022-08-27T18:19:10;12.30;;;9.07;;
3006;SDS011;1513;47.650;10.720;2022-08-27T18:22:13;10.90;;;8.33;;
3006;SDS011;1513;47.650;10.720;2022-08-27T18:25:18;11.40;;;8.50;;
3006;SDS011;1513;47.650;10.720;2022-08-27T18:28:25;14.03;;;7.80;;
3006;SDS011;1513;47.650;10.720;2022-08-27T18:31:30;11.17;;;7.87;;
3006;SDS011;1513;47.650;10.720;2022-08-27T18:34:34;10.30;;;8.00;;
3006;SDS011;1513;47.650;10.720;2022-08-27T18:37:38;9.27;;;7.30;;
3006;SDS011;1513;47.650;10.720;2022-08-27T18:40:44;12.47;;;7.50;;
3006;SDS011;1513;47.650;10.720;2022-08-27T18:43:49;8.37;;;6.23;;
3006;SDS011;1513;47.650;10.720;2022-08-27T18:46:53;8.07;;;7.00;;
3006;SDS011;1513;47.650;10.720;2022-08-27T18:49:57;7.57;;;6.37;;
3006;SDS011;1513;47.650;10.720;2022-08-27T18:53:01;9.70;;;7.23;;
3006;SDS011;1513;47.650;10.720;2022-08-27T18:56:05;10.70;;;7.70;;
3006;SDS011;1513;47.650;10.720;2022-08-27T18:59:10;10.77;;;7.70;;
3006;SDS011;1513;47.650;10.720;2022-08-27T19:02:15;11.83;;;8.30;;
3006;SDS011;1513;47.650;10.720;2022-08-27T19:05:22;13.23;;;8.60;;
3006;SDS011;1513;47.650;10.720;2022-08-27T19:08:26;10.50;;;8.40;;
3006;SDS011;1513;47.650;10.720;2022-08-27T19:11:30;13.10;;;9.00;;
3006;SDS011;1513;47.650;10.720;2022-08-27T19:14:34;13.03;;;9.20;;
3006;SDS011;1513;47.650;10.720;2022-08-27T19:17:37;14.80;;;9.73;;
3006;SDS011;1513;47.650;10.720;2022-08-27T19:20:43;13.97;;;8.93;;
3006;SDS011;1513;47.650;10.720;2022-08-27T19:23:46;13.00;;;9.60;;
3006;SDS011;1513;47.650;10.720;2022-08-27T19:26:52;14.00;;;9.00;;
3006;SDS011;1513;47.650;10.720;2022-08-27T19:29:56;11.87;;;8.40;;
3006;SDS011;1513;47.650;10.720;2022-08-27T19:32:59;12.73;;;8.80;;
3006;SDS011;1513;47.650;10.720;2022-08-27T19:36:03;14.63;;;9.03;;
3006;SDS011;1513;47.650;10.720;2022-08-27T19:39:09;11.27;;;8.33;;
3006;SDS011;1513;47.650;10.720;2022-08-27T19:42:14;9.17;;;6.90;;
3006;SDS011;1513;47.650;10.720;2022-08-27T19:45:18;12.13;;;8.63;;
3006;SDS011;1513;47.650;10.720;2022-08-27T19:48:22;10.73;;;7.60;;
3006;SDS011;1513;47.650;10.720;2022-08-27T19:51:26;12.70;;;9.03;;
3006;SDS011;1513;47.650;10.720;2022-08-27T19:54:29;11.90;;;8.40;;
3006;SDS011;1513;47.650;10.720;2022-08-27T19:57:33;13.00;;;8.30;;
3006;SDS011;1513;47.650;10.720;2022-08-27T20:00:37;10.40;;;7.63;;